createdAt,value
2022-10-23T00:01:13.273Z,12.03
2022-10-23T00:03:41.240Z,12.08
2022-10-23T00:06:09.654Z,12.08
2022-10-23T00:08:37.724Z,12.07
2022-10-23T00:11:07.782Z,12.05
2022-10-23T00:13:35.989Z,12.04
2022-10-23T00:16:04.097Z,12.05
2022-10-23T00:18:31.867Z,12.09
2022-10-23T00:20:59.850Z,12.09
2022-10-23T00:23:27.607Z,12.07
2022-10-23T00:25:55.542Z,12.11
2022-10-23T00:28:23.321Z,12.18
2022-10-23T00:30:51.338Z,12.17
2022-10-23T00:33:19.293Z,12.18
2022-10-23T00:35:47.476Z,12.16
2022-10-23T00:38:15.239Z,12.18
2022-10-23T00:40:45.340Z,12.21
2022-10-23T00:43:20.739Z,12.17
2022-10-23T00:45:48.762Z,12.11
2022-10-23T00:48:17.441Z,12.10
2022-10-23T00:50:46.655Z,12.11
2022-10-23T00:53:16.935Z,12.11
2022-10-23T00:55:47.089Z,12.15
2022-10-23T00:58:17.545Z,12.15
2022-10-23T01:00:48.366Z,12.14
2022-10-23T01:03:17.864Z,12.10
2022-10-23T01:08:57.033Z,12.07
2022-10-23T01:11:28.517Z,12.03
2022-10-23T01:17:25.197Z,11.83
2022-10-23T01:20:16.186Z,11.80
2022-10-23T01:23:11.794Z,11.77
2022-10-23T01:26:00.866Z,11.70
2022-10-23T01:28:32.142Z,11.62
2022-10-23T01:31:02.623Z,11.68
2022-10-23T01:33:41.460Z,11.74
2022-10-23T01:36:14.492Z,11.78
2022-10-23T01:38:52.869Z,11.77
2022-10-23T01:41:40.365Z,11.77
2022-10-23T01:44:14.134Z,11.69
2022-10-23T01:46:43.905Z,11.72
2022-10-23T01:49:13.990Z,11.73
2022-10-23T01:51:45.481Z,11.68
2022-10-23T01:54:15.452Z,11.59
2022-10-23T01:56:46.351Z,11.61
2022-10-23T01:59:16.946Z,11.57
2022-10-23T02:01:47.013Z,11.50
2022-10-23T02:04:21.502Z,11.54
2022-10-23T02:06:50.529Z,11.45
2022-10-23T02:09:18.779Z,11.49
2022-10-23T02:11:55.298Z,11.46
2022-10-23T02:14:26.424Z,11.36
2022-10-23T02:16:55.157Z,11.36
2022-10-23T02:19:32.513Z,11.30
2022-10-23T02:22:31.440Z,11.32
2022-10-23T02:25:14.466Z,11.36
2022-10-23T02:27:49.341Z,11.45
2022-10-23T02:30:19.931Z,11.42
2022-10-23T02:32:55.045Z,11.34
2022-10-23T02:35:24.607Z,11.28
2022-10-23T02:38:01.015Z,11.27
2022-10-23T02:40:37.532Z,11.29
2022-10-23T02:43:12.375Z,11.24
2022-10-23T02:45:42.969Z,11.32
2022-10-23T02:48:19.162Z,11.29
2022-10-23T02:50:47.708Z,11.20
2022-10-23T02:53:30.115Z,11.19
2022-10-23T02:56:03.412Z,11.32
2022-10-23T02:58:54.822Z,11.34
2022-10-23T03:01:26.854Z,11.23
2022-10-23T03:03:57.830Z,11.22
2022-10-23T03:06:26.613Z,11.15
2022-10-23T03:08:58.894Z,11.08
2022-10-23T03:11:27.692Z,11.14
2022-10-23T03:13:56.739Z,10.99
2022-10-23T03:16:24.892Z,10.99
2022-10-23T03:18:55.340Z,11.00
2022-10-23T03:21:24.350Z,11.02
2022-10-23T03:23:54.450Z,10.97
2022-10-23T03:26:31.340Z,10.98
2022-10-23T03:28:59.203Z,11.03
2022-10-23T03:31:27.279Z,11.04
2022-10-23T03:33:59.684Z,10.93
2022-10-23T03:36:27.749Z,11.00
2022-10-23T03:38:56.752Z,10.97
2022-10-23T03:41:24.739Z,11.10
2022-10-23T03:43:52.630Z,11.09
2022-10-23T03:46:20.781Z,11.17
2022-10-23T03:48:50.916Z,11.12
2022-10-23T03:51:20.439Z,11.15
2022-10-23T03:53:49.246Z,11.20
2022-10-23T03:56:17.702Z,11.17
2022-10-23T03:58:46.170Z,11.08
2022-10-23T04:01:15.564Z,11.12
2022-10-23T04:03:43.518Z,11.21
2022-10-23T04:06:11.950Z,11.27
2022-10-23T04:08:40.077Z,11.23
2022-10-23T04:11:14.778Z,11.17
2022-10-23T04:13:46.732Z,11.15
2022-10-23T04:16:15.177Z,11.14
2022-10-23T04:18:45.217Z,11.12
2022-10-23T04:21:13.376Z,11.11
2022-10-23T04:23:41.206Z,11.11
2022-10-23T04:26:18.293Z,11.11
2022-10-23T04:28:46.143Z,11.17
2022-10-23T04:31:14.128Z,11.17
2022-10-23T04:33:43.321Z,11.20
2022-10-23T04:36:17.868Z,11.21
2022-10-23T04:38:45.928Z,11.28
2022-10-23T04:41:14.272Z,11.27
2022-10-23T04:43:42.143Z,11.22
2022-10-23T04:46:10.155Z,11.15
2022-10-23T04:48:38.008Z,11.04
2022-10-23T04:51:21.217Z,10.98
2022-10-23T04:54:07.019Z,11.11
2022-10-23T04:56:53.599Z,11.13
2022-10-23T04:59:22.892Z,11.14
2022-10-23T05:01:51.082Z,11.12
2022-10-23T05:04:19.690Z,11.13
2022-10-23T05:07:26.368Z,11.21
2022-10-23T05:10:03.696Z,11.24
2022-10-23T05:12:49.722Z,11.21
2022-10-23T05:15:17.830Z,11.25
2022-10-23T05:17:47.885Z,11.25
2022-10-23T05:20:19.965Z,11.31
2022-10-23T05:22:50.371Z,11.37
2022-10-23T05:25:21.366Z,11.35
2022-10-23T05:27:53.659Z,11.34
2022-10-23T05:30:22.692Z,11.37
2022-10-23T05:32:51.249Z,11.39
2022-10-23T05:35:23.236Z,11.43
2022-10-23T05:37:53.786Z,11.46
2022-10-23T05:40:24.268Z,11.46
2022-10-23T05:42:58.356Z,11.48
2022-10-23T05:46:04.356Z,11.48
2022-10-23T05:48:50.251Z,11.53
2022-10-23T05:51:23.040Z,11.61
2022-10-23T05:54:17.337Z,11.66
2022-10-23T05:57:14.569Z,11.68
2022-10-23T05:59:49.972Z,11.76
2022-10-23T06:02:41.292Z,11.77
2022-10-23T06:05:35.709Z,11.82
2022-10-23T06:08:19.576Z,11.83
2022-10-23T06:10:50.694Z,11.84
2022-10-23T06:13:19.860Z,11.86
2022-10-23T06:15:48.322Z,11.88
2022-10-23T06:18:20.570Z,11.90
2022-10-23T06:20:55.702Z,11.93
2022-10-23T06:23:26.860Z,11.92
2022-10-23T06:26:15.095Z,11.94
2022-10-23T06:28:55.903Z,11.92
2022-10-23T06:31:26.991Z,11.96
2022-10-23T06:33:58.011Z,11.98
2022-10-23T06:36:27.221Z,12.03
2022-10-23T06:39:01.583Z,12.03
2022-10-23T06:41:49.677Z,12.08
2022-10-23T06:44:37.795Z,12.11
2022-10-23T06:47:11.073Z,12.11
2022-10-23T06:50:02.337Z,12.14
2022-10-23T06:52:46.496Z,12.16
2022-10-23T06:55:17.571Z,12.20
2022-10-23T06:57:46.656Z,12.20
2022-10-23T07:00:15.160Z,12.23
2022-10-23T07:02:53.565Z,12.26
2022-10-23T07:05:21.462Z,12.25
2022-10-23T07:07:49.982Z,12.31
2022-10-23T07:10:24.895Z,12.34
2022-10-23T07:13:01.007Z,12.32
2022-10-23T07:15:41.234Z,12.41
2022-10-23T07:18:16.990Z,12.37
2022-10-23T07:21:07.664Z,12.44
2022-10-23T07:23:36.434Z,12.44
2022-10-23T07:26:11.605Z,12.45
2022-10-23T07:28:41.637Z,12.42
2022-10-23T07:31:09.868Z,12.51
2022-10-23T07:33:57.066Z,12.54
2022-10-23T07:36:25.623Z,12.57
2022-10-23T07:38:53.922Z,12.65
2022-10-23T07:41:22.183Z,12.63
2022-10-23T07:43:50.866Z,12.70
2022-10-23T07:46:20.384Z,12.70
2022-10-23T07:48:49.498Z,12.79
2022-10-23T07:51:17.602Z,12.73
2022-10-23T07:53:49.025Z,12.77
2022-10-23T07:56:36.925Z,12.77
2022-10-23T07:59:17.466Z,12.81
2022-10-23T08:01:56.836Z,12.84
2022-10-23T08:04:36.016Z,12.80
2022-10-23T08:07:14.481Z,12.83
2022-10-23T08:09:45.033Z,12.79
2022-10-23T08:12:13.052Z,12.80
2022-10-23T08:14:41.353Z,12.80
2022-10-23T08:17:10.085Z,12.83
2022-10-23T08:20:13.828Z,12.90
2022-10-23T08:22:44.747Z,12.93
2022-10-23T08:25:21.856Z,12.90
2022-10-23T08:27:53.935Z,12.93
2022-10-23T08:30:22.732Z,12.97
2022-10-23T08:32:51.110Z,13.03
2022-10-23T08:35:19.919Z,13.05
2022-10-23T08:37:48.328Z,13.05
2022-10-23T08:40:18.194Z,13.08
2022-10-23T08:43:11.998Z,13.14
2022-10-23T08:45:53.056Z,13.21
2022-10-23T08:48:49.261Z,13.17
2022-10-23T08:51:41.902Z,13.27
2022-10-23T08:54:14.682Z,13.36
2022-10-23T08:56:44.739Z,13.43
2022-10-23T08:59:22.798Z,13.52
2022-10-23T09:01:54.340Z,13.51
2022-10-23T09:04:22.711Z,13.63
2022-10-23T09:07:02.742Z,13.61
2022-10-23T09:09:37.491Z,13.74
2022-10-23T09:12:11.699Z,13.62
2022-10-23T09:14:40.202Z,13.52
2022-10-23T09:17:26.010Z,13.47
2022-10-23T09:20:05.592Z,13.42
2022-10-23T09:22:34.222Z,13.38
2022-10-23T09:25:02.445Z,13.39
2022-10-23T09:27:30.707Z,13.37
2022-10-23T09:29:59.501Z,13.32
2022-10-23T09:32:36.155Z,13.40
2022-10-23T09:35:05.550Z,13.44
2022-10-23T09:37:36.036Z,13.50
2022-10-23T09:40:14.551Z,13.46
2022-10-23T09:42:52.653Z,13.42
2022-10-23T09:45:23.010Z,13.44
2022-10-23T09:47:51.790Z,13.60
2022-10-23T09:50:21.962Z,13.81
2022-10-23T09:52:54.303Z,14.18
2022-10-23T09:55:25.146Z,14.04
2022-10-23T09:57:54.271Z,14.07
2022-10-23T10:00:25.999Z,14.06
2022-10-23T10:02:59.786Z,14.62
2022-10-23T10:06:01.716Z,14.57
2022-10-23T10:08:30.803Z,14.67
2022-10-23T10:10:58.861Z,15.43
2022-10-23T10:13:37.420Z,15.24
2022-10-23T10:16:15.380Z,14.59
2022-10-23T10:18:47.762Z,14.30
2022-10-23T10:21:27.975Z,14.28
2022-10-23T10:24:03.394Z,14.14
2022-10-23T10:26:34.536Z,14.11
2022-10-23T10:29:02.999Z,13.98
2022-10-23T10:31:39.128Z,14.04
2022-10-23T10:34:13.585Z,13.89
2022-10-23T10:36:42.885Z,13.89
2022-10-23T10:39:19.457Z,13.83
2022-10-23T10:41:59.470Z,13.90
2022-10-23T10:44:40.155Z,14.12
2022-10-23T10:47:21.216Z,14.19
2022-10-23T10:50:10.455Z,14.36
2022-10-23T10:53:09.138Z,14.45
2022-10-23T10:55:39.468Z,14.24
2022-10-23T10:58:10.673Z,14.13
2022-10-23T11:00:39.618Z,14.13
2022-10-23T11:03:33.826Z,14.07
2022-10-23T11:06:06.423Z,14.02
2022-10-23T11:08:49.943Z,14.06
2022-10-23T11:11:33.233Z,13.97
2022-10-23T11:14:02.265Z,13.97
2022-10-23T11:16:34.237Z,13.96
2022-10-23T11:19:17.205Z,14.00
2022-10-23T11:21:51.453Z,14.19
2022-10-23T11:24:31.688Z,14.54
2022-10-23T11:27:15.660Z,14.57
2022-10-23T11:29:47.120Z,15.36
2022-10-23T11:32:18.498Z,15.27
2022-10-23T11:34:57.876Z,15.49
2022-10-23T11:37:27.080Z,15.63
2022-10-23T11:40:08.058Z,15.49
2022-10-23T11:42:39.374Z,15.18
2022-10-23T11:45:30.392Z,15.51
2022-10-23T11:47:58.879Z,14.90
2022-10-23T11:50:28.476Z,14.90
2022-10-23T11:53:13.409Z,15.55
2022-10-23T11:55:56.475Z,15.32
2022-10-23T11:58:32.038Z,15.09
2022-10-23T12:01:02.867Z,15.11
2022-10-23T12:03:54.387Z,14.95
2022-10-23T12:06:32.143Z,14.89
2022-10-23T12:09:02.714Z,14.72
2022-10-23T12:11:42.452Z,14.63
2022-10-23T12:14:30.599Z,14.58
2022-10-23T12:16:58.918Z,14.60
2022-10-23T12:19:29.419Z,14.50
2022-10-23T12:21:59.658Z,14.53
2022-10-23T12:24:52.773Z,14.52
2022-10-23T12:27:24.019Z,14.33
2022-10-23T12:30:14.723Z,14.37
2022-10-23T12:32:46.147Z,14.37
2022-10-23T12:35:17.788Z,14.40
2022-10-23T12:37:55.254Z,14.58
2022-10-23T12:40:29.847Z,14.89
2022-10-23T12:42:59.959Z,14.84
2022-10-23T12:45:40.147Z,14.89
2022-10-23T12:48:18.291Z,14.70
2022-10-23T12:50:50.483Z,14.60
2022-10-23T12:53:19.826Z,14.62
2022-10-23T12:55:48.676Z,14.54
2022-10-23T12:58:24.225Z,14.58
2022-10-23T13:01:00.905Z,14.62
2022-10-23T13:03:30.751Z,14.64
2022-10-23T13:06:00.256Z,14.55
2022-10-23T13:08:37.160Z,14.50
2022-10-23T13:11:32.249Z,14.53
2022-10-23T13:14:11.497Z,14.49
2022-10-23T13:16:40.062Z,14.90
2022-10-23T13:19:22.118Z,14.97
2022-10-23T13:21:50.515Z,14.95
2022-10-23T13:24:22.811Z,15.33
2022-10-23T13:26:51.069Z,15.52
2022-10-23T13:31:54.893Z,15.90
2022-10-23T13:34:24.782Z,16.39
2022-10-23T13:36:59.567Z,15.74
2022-10-23T13:39:34.330Z,15.81
2022-10-23T13:42:12.032Z,15.93
2022-10-23T13:44:41.999Z,15.68
2022-10-23T13:47:13.971Z,15.46
2022-10-23T13:49:42.376Z,15.55
2022-10-23T13:52:13.108Z,15.19
2022-10-23T13:54:41.337Z,15.37
2022-10-23T13:57:13.038Z,15.59
2022-10-23T13:59:41.303Z,15.65
2022-10-23T14:02:18.125Z,15.15
2022-10-23T14:04:47.390Z,15.45
2022-10-23T14:07:16.459Z,15.68
2022-10-23T14:09:45.006Z,15.76
2022-10-23T14:12:14.011Z,15.56
2022-10-23T14:14:43.081Z,15.58
2022-10-23T14:17:11.256Z,15.21
2022-10-23T14:19:39.210Z,14.93
2022-10-23T14:22:07.512Z,14.93
2022-10-23T14:24:36.141Z,14.88
2022-10-23T14:27:04.687Z,14.95
2022-10-23T14:29:33.496Z,14.62
2022-10-23T14:36:13.083Z,14.27
2022-10-23T14:39:07.724Z,14.00
2022-10-23T14:41:53.890Z,13.94
2022-10-23T14:47:53.904Z,13.84
2022-10-23T14:50:30.373Z,13.67
2022-10-23T15:08:06.313Z,13.14
2022-10-23T15:10:50.423Z,12.92
2022-10-23T15:14:15.829Z,12.86
2022-10-23T15:21:29.157Z,12.52
2022-10-23T15:29:31.770Z,12.42
2022-10-23T15:39:51.059Z,12.12
2022-10-23T15:43:00.773Z,11.31
2022-10-23T15:51:16.216Z,11.06
2022-10-23T16:09:24.017Z,11.13
2022-10-23T16:15:54.200Z,10.68
2022-10-23T16:18:23.068Z,10.67
2022-10-23T16:20:51.194Z,10.67
2022-10-23T16:23:19.635Z,10.43
2022-10-23T16:25:48.378Z,9.97
2022-10-23T16:28:17.994Z,9.85
2022-10-23T16:30:46.973Z,10.12
2022-10-23T16:33:18.676Z,10.17
2022-10-23T16:35:47.479Z,10.12
2022-10-23T16:38:24.634Z,10.18
2022-10-23T16:40:54.388Z,9.92
2022-10-23T16:43:47.450Z,9.71
2022-10-23T16:46:36.429Z,9.93
2022-10-23T16:53:50.057Z,9.97
2022-10-23T16:57:18.281Z,9.89
2022-10-23T17:02:13.212Z,9.93
2022-10-23T17:11:22.626Z,9.73
2022-10-23T17:14:32.965Z,9.50
2022-10-23T17:17:01.822Z,9.15
2022-10-23T17:19:47.218Z,8.78
2022-10-23T17:22:16.438Z,9.27
2022-10-23T17:24:48.717Z,8.97
2022-10-23T17:27:21.027Z,9.02
2022-10-23T17:29:50.350Z,9.14
2022-10-23T17:32:18.811Z,9.31
2022-10-23T17:34:48.614Z,9.09
2022-10-23T17:37:17.431Z,8.40
2022-10-23T17:39:46.085Z,8.98
2022-10-23T17:42:14.685Z,8.90
2022-10-23T17:44:43.736Z,8.82
2022-10-23T17:47:11.768Z,8.72
2022-10-23T17:49:42.865Z,8.72
2022-10-23T17:52:15.272Z,8.78
2022-10-23T17:54:43.869Z,8.81
2022-10-23T17:57:11.896Z,8.87
2022-10-23T17:59:40.328Z,8.61
2022-10-23T18:02:10.340Z,8.62
2022-10-23T18:04:39.600Z,8.69
2022-10-23T18:07:08.184Z,8.35
2022-10-23T18:09:37.358Z,8.15
2022-10-23T18:12:06.648Z,8.37
2022-10-23T18:14:37.526Z,8.47
2022-10-23T18:17:06.260Z,8.53
2022-10-23T18:19:37.830Z,8.62
2022-10-23T18:22:06.558Z,8.76
2022-10-23T18:24:36.611Z,8.66
2022-10-23T18:27:05.041Z,8.87
2022-10-23T18:29:34.627Z,8.63
2022-10-23T18:32:02.693Z,8.73
2022-10-23T18:34:31.218Z,8.60
2022-10-23T18:37:00.665Z,8.77
2022-10-23T18:39:28.986Z,8.65
2022-10-23T18:41:57.625Z,8.76
2022-10-23T18:44:28.908Z,8.75
2022-10-23T18:46:57.939Z,8.80
2022-10-23T18:49:26.884Z,8.93
2022-10-23T18:51:55.876Z,9.02
2022-10-23T18:54:24.275Z,8.97
2022-10-23T18:56:52.476Z,8.84
2022-10-23T18:59:21.924Z,8.81
2022-10-23T19:01:50.609Z,8.96
2022-10-23T19:04:19.121Z,8.86
2022-10-23T19:06:48.686Z,8.78
2022-10-23T19:09:17.700Z,8.90
2022-10-23T19:11:46.121Z,8.84
2022-10-23T19:14:14.934Z,8.58
2022-10-23T19:16:54.432Z,8.28
2022-10-23T19:19:26.442Z,8.44
2022-10-23T19:21:55.126Z,7.80
2022-10-23T19:24:26.000Z,7.67
2022-10-23T19:26:54.576Z,7.77
2022-10-23T19:29:26.561Z,7.87
2022-10-23T19:31:55.010Z,8.18
2022-10-23T19:34:25.324Z,8.42
2022-10-23T19:36:54.679Z,8.53
2022-10-23T19:39:23.627Z,8.51
2022-10-23T19:41:53.637Z,8.50
2022-10-23T19:44:23.153Z,8.37
2022-10-23T19:46:51.481Z,8.22
2022-10-23T19:49:20.181Z,8.26
2022-10-23T19:51:51.977Z,8.07
2022-10-23T19:54:21.267Z,7.87
2022-10-23T19:56:50.301Z,7.99
2022-10-23T19:59:19.154Z,7.83
2022-10-23T20:01:49.051Z,7.62
2022-10-23T20:04:18.629Z,7.65
2022-10-23T20:06:47.853Z,7.89
2022-10-23T20:09:16.721Z,8.40
2022-10-23T20:11:45.594Z,8.57
2022-10-23T20:14:15.260Z,8.64
2022-10-23T20:16:50.065Z,8.66
2022-10-23T20:19:21.419Z,8.70
2022-10-23T20:21:50.583Z,8.75
2022-10-23T20:24:20.149Z,8.68
2022-10-23T20:26:51.829Z,8.62
2022-10-23T20:29:22.016Z,8.64
2022-10-23T20:31:55.084Z,8.71
2022-10-23T20:34:23.723Z,8.77
2022-10-23T20:36:52.883Z,8.81
2022-10-23T20:39:25.717Z,8.81
2022-10-23T20:41:57.773Z,8.75
2022-10-23T20:44:30.983Z,8.88
2022-10-23T20:47:02.951Z,8.98
2022-10-23T20:49:32.667Z,8.83
2022-10-23T20:52:03.709Z,8.74
2022-10-23T20:54:34.746Z,8.96
2022-10-23T20:57:03.707Z,8.99
2022-10-23T20:59:35.391Z,8.94
2022-10-23T21:02:04.770Z,9.08
2022-10-23T21:04:34.598Z,9.11
2022-10-23T21:07:11.426Z,9.15
2022-10-23T21:09:41.730Z,9.08
2022-10-23T21:12:10.364Z,9.06
2022-10-23T21:14:40.525Z,9.11
2022-10-23T21:17:11.147Z,9.05
2022-10-23T21:19:40.043Z,9.07
2022-10-23T21:22:09.090Z,9.10
2022-10-23T21:24:37.473Z,9.06
2022-10-23T21:27:05.581Z,9.07
2022-10-23T21:29:35.137Z,9.04
2022-10-23T21:32:03.378Z,9.05
2022-10-23T21:34:32.619Z,9.09
2022-10-23T21:37:17.726Z,9.01
2022-10-23T21:39:46.407Z,9.07
2022-10-23T21:42:14.555Z,9.10
2022-10-23T21:44:44.735Z,9.09
2022-10-23T21:47:13.470Z,8.96
2022-10-23T21:49:41.847Z,8.96
2022-10-23T21:52:09.805Z,8.88
2022-10-23T21:54:38.146Z,8.93
2022-10-23T21:57:12.595Z,8.99
2022-10-23T21:59:40.892Z,9.04
2022-10-23T22:02:09.456Z,9.00
2022-10-23T22:04:38.123Z,9.07
2022-10-23T22:07:08.005Z,8.99
2022-10-23T22:09:37.637Z,8.97
2022-10-23T22:12:05.621Z,8.94
2022-10-23T22:14:35.711Z,8.99
2022-10-23T22:17:03.718Z,8.90
2022-10-23T22:19:31.989Z,8.81
2022-10-23T22:21:59.907Z,8.72
2022-10-23T22:24:28.041Z,8.49
2022-10-23T22:26:56.548Z,8.17
2022-10-23T22:29:25.957Z,8.10
2022-10-23T22:31:54.145Z,8.45
2022-10-23T22:37:11.717Z,7.75
2022-10-23T22:39:40.239Z,7.98
2022-10-23T22:42:08.069Z,8.04
2022-10-23T22:44:36.046Z,8.17
2022-10-23T22:47:03.937Z,8.26
2022-10-23T22:49:32.097Z,8.17
2022-10-23T22:51:59.938Z,8.27
2022-10-23T22:54:28.085Z,8.24
2022-10-23T22:56:56.033Z,7.85
2022-10-23T22:59:24.153Z,8.00
2022-10-23T23:01:52.006Z,7.90
2022-10-23T23:07:10.465Z,7.66
2022-10-23T23:09:42.514Z,7.77
2022-10-23T23:12:11.470Z,7.52
2022-10-23T23:14:40.571Z,7.26
2022-10-23T23:17:09.051Z,7.28
2022-10-23T23:19:37.100Z,7.40
2022-10-23T23:22:05.324Z,7.48
2022-10-23T23:24:34.058Z,7.48
2022-10-23T23:27:01.897Z,7.45
2022-10-23T23:29:30.083Z,7.55
2022-10-23T23:31:58.656Z,7.52
2022-10-23T23:34:29.483Z,7.49
2022-10-23T23:36:57.745Z,7.41
2022-10-23T23:39:26.391Z,7.38
2022-10-23T23:41:54.166Z,7.47
2022-10-23T23:44:22.102Z,7.55
2022-10-23T23:46:49.905Z,7.66
2022-10-23T23:49:18.313Z,7.73
2022-10-23T23:51:46.183Z,7.80
2022-10-23T23:54:14.293Z,7.84
2022-10-23T23:56:42.121Z,7.85
2022-10-23T23:59:10.159Z,7.86
